createdAt,value
2018-09-07T00:00:00.488Z,0
2018-09-07T00:01:01.021Z,0
2018-09-07T00:02:00.992Z,0
2018-09-07T00:03:00.716Z,0
2018-09-07T00:04:00.699Z,0
2018-09-07T00:05:01.526Z,0
2018-09-07T00:06:00.942Z,0
2018-09-07T00:07:00.926Z,0
2018-09-07T00:08:01.448Z,0
2018-09-07T00:09:00.901Z,0
2018-09-07T00:10:01.411Z,0
2018-09-07T00:11:00.879Z,0
2018-09-07T00:12:01.140Z,0
2018-09-07T00:13:00.585Z,0
2018-09-07T00:14:00.836Z,0
2018-09-07T00:15:01.083Z,0
2018-09-07T00:16:00.811Z,0
2018-09-07T00:17:00.802Z,0
2018-09-07T00:18:00.784Z,0
2018-09-07T00:19:01.032Z,0
2018-09-07T00:20:00.767Z,0
2018-09-07T00:21:01.272Z,0
2018-09-07T00:22:01.007Z,0
2018-09-07T00:23:00.990Z,0
2018-09-07T00:24:00.972Z,0
2018-09-07T00:25:00.173Z,0
2018-09-07T00:26:00.951Z,0
2018-09-07T00:27:00.934Z,0
2018-09-07T00:28:01.389Z,0
2018-09-07T00:29:00.915Z,0
2018-09-07T00:30:01.168Z,0
2018-09-07T00:31:00.630Z,0
2018-09-07T00:32:01.133Z,0
2018-09-07T00:33:00.354Z,0
2018-09-07T00:34:00.315Z,0
2018-09-07T00:35:00.574Z,0
2018-09-07T00:36:00.297Z,0
2018-09-07T00:37:00.545Z,0
2018-09-07T00:38:00.533Z,0
2018-09-07T00:39:01.047Z,0
2018-09-07T00:40:00.769Z,0
2018-09-07T00:41:00.761Z,0
2018-09-07T00:42:00.474Z,0
2018-09-07T00:43:00.725Z,0
2018-09-07T00:44:00.453Z,0
2018-09-07T00:45:00.703Z,0
2018-09-07T00:46:00.426Z,0
2018-09-07T00:47:00.683Z,0
2018-09-07T00:48:00.400Z,0
2018-09-07T00:49:00.656Z,0
2018-09-07T00:50:00.381Z,0
2018-09-07T00:51:00.100Z,0
2018-09-07T00:52:00.350Z,0
2018-09-07T00:53:00.597Z,0
2018-09-07T00:54:00.318Z,0
2018-09-07T00:55:00.304Z,0
2018-09-07T00:56:00.565Z,0
2018-09-07T00:57:00.552Z,0
2018-09-07T00:58:00.531Z,0
2018-09-07T00:58:59.991Z,0
2018-09-07T01:00:00.768Z,0
2018-09-07T01:01:00.229Z,0
2018-09-07T01:02:00.755Z,0
2018-09-07T01:03:00.209Z,0
2018-09-07T01:04:00.188Z,0
2018-09-07T01:05:00.446Z,0
2018-09-07T01:06:00.698Z,0
2018-09-07T01:07:00.681Z,0
2018-09-07T01:08:00.418Z,0
2018-09-07T01:09:00.397Z,0
2018-09-07T01:10:00.377Z,0
2018-09-07T01:11:00.106Z,0
2018-09-07T01:12:00.363Z,0
2018-09-07T01:13:00.340Z,0
2018-09-07T01:14:00.324Z,0
2018-09-07T01:15:00.579Z,0
2018-09-07T01:16:00.295Z,0
2018-09-07T01:17:00.022Z,0
2018-09-07T01:18:00.278Z,0
2018-09-07T01:19:00.000Z,0
2018-09-07T01:19:59.980Z,0
2018-09-07T01:21:00.499Z,0
2018-09-07T01:22:00.238Z,0
2018-09-07T01:23:00.211Z,0
2018-09-07T01:23:59.946Z,0
2018-09-07T01:24:59.938Z,0
2018-09-07T01:25:59.639Z,0
2018-09-07T01:26:59.908Z,0
2018-09-07T01:28:00.195Z,0
2018-09-07T01:28:59.867Z,0
2018-09-07T01:30:00.388Z,0
2018-09-07T01:31:00.368Z,0
2018-09-07T01:32:00.089Z,0
2018-09-07T01:33:00.105Z,0
2018-09-07T01:34:00.069Z,0
2018-09-07T01:35:00.328Z,0
2018-09-07T01:36:00.046Z,0
2018-09-07T01:37:00.028Z,0
2018-09-07T01:38:00.016Z,0
2018-09-07T01:38:59.998Z,0
2018-09-07T01:39:59.985Z,0
2018-09-07T01:40:59.714Z,0
2018-09-07T01:41:59.439Z,0
2018-09-07T01:42:59.953Z,0
2018-09-07T01:43:59.413Z,0
2018-09-07T01:44:59.661Z,0
2018-09-07T01:45:59.649Z,0
2018-09-07T01:46:59.376Z,0
2018-09-07T01:47:59.622Z,0
2018-09-07T01:49:00.137Z,0
2018-09-07T01:50:00.120Z,0
2018-09-07T01:50:59.587Z,0
2018-09-07T01:51:59.839Z,0
2018-09-07T01:52:59.823Z,0
2018-09-07T01:53:59.544Z,0
2018-09-07T01:54:59.794Z,0
2018-09-07T01:56:00.040Z,0
2018-09-07T01:56:59.501Z,0
2018-09-07T01:57:59.494Z,0
2018-09-07T01:58:59.487Z,0
2018-09-07T01:59:59.747Z,0
2018-09-07T02:00:59.716Z,0
2018-09-07T02:01:59.972Z,0
2018-09-07T02:02:59.738Z,0
2018-09-07T02:03:59.416Z,0
2018-09-07T02:04:59.924Z,0
2018-09-07T02:05:59.934Z,0
2018-09-07T02:06:59.632Z,0
2018-09-07T02:07:59.350Z,0
2018-09-07T02:08:59.609Z,0
2018-09-07T02:09:59.597Z,0
2018-09-07T02:10:59.602Z,0
2018-09-07T02:11:59.041Z,0
2018-09-07T02:12:59.027Z,0
2018-09-07T02:13:59.561Z,0
2018-09-07T02:14:59.271Z,0
2018-09-07T02:15:58.719Z,0
2018-09-07T02:16:59.504Z,0
2018-09-07T02:17:59.492Z,0
2018-09-07T02:18:59.528Z,0
2018-09-07T02:19:59.728Z,0
2018-09-07T02:20:59.712Z,0
2018-09-07T02:21:59.701Z,0
2018-09-07T02:22:59.689Z,0
2018-09-07T02:23:59.411Z,0
2018-09-07T02:24:59.675Z,0
2018-09-07T02:25:59.116Z,0
2018-09-07T02:26:59.368Z,0
2018-09-07T02:27:59.299Z,0
2018-09-07T02:28:59.073Z,0
2018-09-07T02:29:59.341Z,0
2018-09-07T02:30:59.319Z,0
2018-09-07T02:31:58.782Z,0
2018-09-07T02:32:59.316Z,0
2018-09-07T02:33:59.027Z,0
2018-09-07T02:34:59.279Z,0
2018-09-07T02:35:59.279Z,0
2018-09-07T02:36:59.246Z,0
2018-09-07T02:37:58.705Z,0
2018-09-07T02:38:59.237Z,0
2018-09-07T02:39:59.202Z,0
2018-09-07T02:40:59.480Z,0
2018-09-07T02:41:59.183Z,0
2018-09-07T02:42:59.169Z,0
2018-09-07T02:43:59.214Z,0
2018-09-07T02:44:58.619Z,0
2018-09-07T02:45:59.125Z,0
2018-09-07T02:46:59.375Z,0
2018-09-07T02:47:59.108Z,0
2018-09-07T02:48:59.080Z,0
2018-09-07T02:49:58.542Z,0
2018-09-07T02:50:59.324Z,0
2018-09-07T02:51:58.254Z,0
2018-09-07T02:52:59.030Z,0
2018-09-07T02:53:58.751Z,0
2018-09-07T02:54:59.003Z,0
2018-09-07T02:55:58.478Z,0
2018-09-07T02:56:59.249Z,0
2018-09-07T02:57:58.978Z,0
2018-09-07T02:58:58.955Z,0
2018-09-07T02:59:59.206Z,0
2018-09-07T03:00:58.671Z,0
2018-09-07T03:01:59.267Z,0
2018-09-07T03:02:58.904Z,0
2018-09-07T03:03:59.196Z,0
2018-09-07T03:04:58.612Z,0
2018-09-07T03:05:58.862Z,0
2018-09-07T03:06:58.326Z,0
2018-09-07T03:07:58.845Z,0
2018-09-07T03:08:59.084Z,0
2018-09-07T03:09:58.544Z,0
2018-09-07T03:10:58.542Z,0
2018-09-07T03:11:58.529Z,0
2018-09-07T03:12:58.777Z,0
2018-09-07T03:13:58.231Z,0
2018-09-07T03:14:58.234Z,0
2018-09-07T03:15:58.999Z,0
2018-09-07T03:16:57.928Z,0
2018-09-07T03:17:58.458Z,0
2018-09-07T03:18:58.954Z,0
2018-09-07T03:19:58.414Z,0
2018-09-07T03:20:58.664Z,0
2018-09-07T03:21:58.661Z,0
2018-09-07T03:22:58.932Z,0
2018-09-07T03:23:58.629Z,0
2018-09-07T03:24:58.354Z,0
2018-09-07T03:25:58.619Z,0
2018-09-07T03:26:58.581Z,0
2018-09-07T03:27:58.047Z,0
2018-09-07T03:28:58.844Z,0
2018-09-07T03:29:58.823Z,0
2018-09-07T03:30:58.285Z,0
2018-09-07T03:31:58.001Z,0
2018-09-07T03:32:58.524Z,0
2018-09-07T03:33:58.496Z,0
2018-09-07T03:34:58.486Z,0
2018-09-07T03:35:57.946Z,0
2018-09-07T03:36:58.190Z,0
2018-09-07T03:37:58.178Z,0
2018-09-07T03:38:58.174Z,0
2018-09-07T03:39:58.692Z,0
2018-09-07T03:40:58.418Z,0
2018-09-07T03:41:58.128Z,0
2018-09-07T03:42:58.383Z,0
2018-09-07T03:43:58.362Z,0
2018-09-07T03:44:58.687Z,0
2018-09-07T03:45:58.336Z,0
2018-09-07T03:46:58.327Z,0
2018-09-07T03:47:58.326Z,0
2018-09-07T03:48:58.331Z,0
2018-09-07T03:49:58.303Z,0
2018-09-07T03:50:59.181Z,0
2018-09-07T03:51:58.000Z,0
2018-09-07T03:52:57.732Z,0
2018-09-07T03:53:58.236Z,0
2018-09-07T03:54:57.707Z,0
2018-09-07T03:55:58.000Z,0
2018-09-07T03:56:58.195Z,0
2018-09-07T03:57:57.919Z,0
2018-09-07T03:58:58.430Z,0
2018-09-07T03:59:58.150Z,0
2018-09-07T04:00:57.882Z,0
2018-09-07T04:01:57.873Z,0
2018-09-07T04:02:58.386Z,0
2018-09-07T04:03:57.849Z,0
2018-09-07T04:04:57.833Z,0
2018-09-07T04:05:58.082Z,0
2018-09-07T04:06:57.537Z,0
2018-09-07T04:07:57.520Z,0
2018-09-07T04:08:58.040Z,0
2018-09-07T04:09:58.027Z,0
2018-09-07T04:10:58.290Z,0
2018-09-07T04:11:58.010Z,0
2018-09-07T04:12:58.251Z,0
2018-09-07T04:13:57.979Z,0
2018-09-07T04:14:57.952Z,0
2018-09-07T04:15:57.430Z,0
2018-09-07T04:16:57.938Z,0
2018-09-07T04:17:57.657Z,0
2018-09-07T04:18:57.920Z,0
2018-09-07T04:19:58.158Z,0
2018-09-07T04:20:57.621Z,0
2018-09-07T04:21:57.605Z,0
2018-09-07T04:22:57.594Z,0
2018-09-07T04:23:57.851Z,0
2018-09-07T04:24:57.567Z,0
2018-09-07T04:25:57.550Z,0
2018-09-07T04:26:57.796Z,0
2018-09-07T04:27:58.039Z,0
2018-09-07T04:28:57.246Z,0
2018-09-07T04:29:58.042Z,0
2018-09-07T04:30:58.017Z,0
2018-09-07T04:31:57.737Z,0
2018-09-07T04:32:57.458Z,0
2018-09-07T04:33:57.716Z,0
2018-09-07T04:34:57.433Z,0
2018-09-07T04:35:57.686Z,0
2018-09-07T04:36:57.686Z,0
2018-09-07T04:37:57.409Z,0
2018-09-07T04:38:57.654Z,0
2018-09-07T04:39:57.639Z,0
2018-09-07T04:40:57.635Z,0
2018-09-07T04:41:57.353Z,0
2018-09-07T04:42:57.878Z,0
2018-09-07T04:43:57.584Z,0
2018-09-07T04:44:57.313Z,0
2018-09-07T04:45:57.303Z,0
2018-09-07T04:46:57.018Z,0
2018-09-07T04:47:57.567Z,0
2018-09-07T04:48:56.984Z,0
2018-09-07T04:49:57.501Z,0
2018-09-07T04:50:56.696Z,0
2018-09-07T04:51:57.487Z,0
2018-09-07T04:52:57.460Z,0
2018-09-07T04:53:57.450Z,0
2018-09-07T04:54:57.437Z,0
2018-09-07T04:55:57.416Z,0
2018-09-07T04:56:57.413Z,0
2018-09-07T04:57:57.665Z,0
2018-09-07T04:58:57.650Z,0
2018-09-07T04:59:57.372Z,5
2018-09-07T05:00:57.636Z,5
2018-09-07T05:01:57.349Z,5
2018-09-07T05:02:57.341Z,5
2018-09-07T05:03:57.319Z,5
2018-09-07T05:04:57.586Z,5
2018-09-07T05:05:57.567Z,5
2018-09-07T05:06:57.021Z,5
2018-09-07T05:07:57.268Z,10
2018-09-07T05:08:57.524Z,5
2018-09-07T05:09:56.710Z,10
2018-09-07T05:10:56.970Z,10
2018-09-07T05:11:57.214Z,10
2018-09-07T05:12:56.425Z,10
2018-09-07T05:13:56.926Z,10
2018-09-07T05:14:57.183Z,10
2018-09-07T05:15:57.424Z,10
2018-09-07T05:16:56.881Z,10
2018-09-07T05:17:56.877Z,10
2018-09-07T05:18:57.385Z,10
2018-09-07T05:19:57.374Z,15
2018-09-07T05:20:56.567Z,15
2018-09-07T05:21:56.884Z,15
2018-09-07T05:22:56.815Z,15
2018-09-07T05:23:56.532Z,15
2018-09-07T05:24:57.036Z,15
2018-09-07T05:25:56.763Z,15
2018-09-07T05:26:56.742Z,15
2018-09-07T05:27:56.731Z,15
2018-09-07T05:28:57.036Z,15
2018-09-07T05:29:56.705Z,15
2018-09-07T05:30:57.266Z,15
2018-09-07T05:31:56.690Z,15
2018-09-07T05:32:56.665Z,15
2018-09-07T05:33:57.186Z,15
2018-09-07T05:34:57.175Z,15
2018-09-07T05:35:56.896Z,15
2018-09-07T05:36:56.884Z,15
2018-09-07T05:37:56.599Z,20
2018-09-07T05:38:56.593Z,20
2018-09-07T05:39:56.574Z,20
2018-09-07T05:40:56.574Z,20
2018-09-07T05:41:56.554Z,20
2018-09-07T05:42:57.068Z,20
2018-09-07T05:43:56.524Z,20
2018-09-07T05:44:56.244Z,20
2018-09-07T05:45:56.761Z,15
2018-09-07T05:46:57.007Z,15
2018-09-07T05:47:56.745Z,20
2018-09-07T05:48:56.723Z,20
2018-09-07T05:49:57.583Z,20
2018-09-07T05:50:56.705Z,25
2018-09-07T05:51:56.699Z,25
2018-09-07T05:52:56.146Z,25
2018-09-07T05:53:56.944Z,25
2018-09-07T05:54:55.859Z,30
2018-09-07T05:55:56.361Z,30
2018-09-07T05:56:56.672Z,30
2018-09-07T05:57:56.886Z,30
2018-09-07T05:58:56.595Z,30
2018-09-07T05:59:56.586Z,30
2018-09-07T06:00:56.859Z,30
2018-09-07T06:01:56.303Z,30
2018-09-07T06:02:56.019Z,30
2018-09-07T06:03:56.271Z,30
2018-09-07T06:04:56.530Z,30
2018-09-07T06:05:56.500Z,30
2018-09-07T06:06:56.491Z,30
2018-09-07T06:07:56.758Z,30
2018-09-07T06:08:56.722Z,30
2018-09-07T06:09:56.472Z,30
2018-09-07T06:10:56.436Z,25
2018-09-07T06:11:56.167Z,25
2018-09-07T06:12:56.677Z,25
2018-09-07T06:13:55.870Z,30
2018-09-07T06:14:56.127Z,30
2018-09-07T06:15:56.961Z,30
2018-09-07T06:16:56.664Z,30
2018-09-07T06:17:56.612Z,30
2018-09-07T06:18:56.350Z,30
2018-09-07T06:19:56.312Z,30
2018-09-07T06:20:56.045Z,30
2018-09-07T06:21:56.067Z,30
2018-09-07T06:22:56.721Z,35
2018-09-07T06:23:56.272Z,40
2018-09-07T06:24:56.267Z,40
2018-09-07T06:25:56.233Z,40
2018-09-07T06:26:55.960Z,35
2018-09-07T06:27:56.800Z,35
2018-09-07T06:28:55.937Z,35
2018-09-07T06:29:56.441Z,35
2018-09-07T06:30:56.444Z,35
2018-09-07T06:31:56.161Z,40
2018-09-07T06:32:56.181Z,40
2018-09-07T06:33:55.866Z,40
2018-09-07T06:34:56.113Z,40
2018-09-07T06:35:56.379Z,40
2018-09-07T06:36:55.952Z,40
2018-09-07T06:37:55.812Z,40
2018-09-07T06:38:56.989Z,40
2018-09-07T06:39:55.790Z,45
2018-09-07T06:40:56.050Z,45
2018-09-07T06:41:55.799Z,50
2018-09-07T06:42:56.019Z,50
2018-09-07T06:43:55.990Z,50
2018-09-07T06:44:55.720Z,55
2018-09-07T06:45:55.715Z,55
2018-09-07T06:46:56.524Z,60
2018-09-07T06:47:55.695Z,65
2018-09-07T06:48:55.662Z,70
2018-09-07T06:49:56.178Z,75
2018-09-07T06:50:56.220Z,75
2018-09-07T06:51:56.151Z,85
2018-09-07T06:52:56.146Z,95
2018-09-07T06:53:55.602Z,95
2018-09-07T06:54:55.842Z,105
2018-09-07T06:55:56.113Z,100
2018-09-07T06:56:55.831Z,95
2018-09-07T06:57:55.824Z,95
2018-09-07T06:58:56.059Z,95
2018-09-07T06:59:55.521Z,90
2018-09-07T07:00:55.773Z,90
2018-09-07T07:01:55.768Z,95
2018-09-07T07:02:55.955Z,105
2018-09-07T07:03:55.477Z,120
2018-09-07T07:04:55.725Z,130
2018-09-07T07:05:55.443Z,130
2018-09-07T07:06:55.961Z,130
2018-09-07T07:07:55.676Z,130
2018-09-07T07:08:56.090Z,120
2018-09-07T07:09:55.653Z,120
2018-09-07T07:10:55.900Z,120
2018-09-07T07:11:55.631Z,110
2018-09-07T07:12:55.622Z,105
2018-09-07T07:13:55.334Z,100
2018-09-07T07:14:56.120Z,95
2018-09-07T07:15:55.312Z,90
2018-09-07T07:16:55.565Z,90
2018-09-07T07:17:55.563Z,90
2018-09-07T07:18:55.806Z,95
2018-09-07T07:19:55.790Z,95
2018-09-07T07:20:55.789Z,100
2018-09-07T07:21:55.772Z,100
2018-09-07T07:22:54.963Z,105
2018-09-07T07:23:55.471Z,110
2018-09-07T07:24:55.469Z,115
2018-09-07T07:25:55.187Z,115
2018-09-07T07:26:55.706Z,115
2018-09-07T07:27:55.425Z,110
2018-09-07T07:28:55.405Z,105
2018-09-07T07:29:55.136Z,100
2018-09-07T07:30:54.862Z,100
2018-09-07T07:31:55.382Z,95
2018-09-07T07:32:55.103Z,95
2018-09-07T07:33:55.094Z,95
2018-09-07T07:34:55.339Z,90
2018-09-07T07:35:55.585Z,80
2018-09-07T07:36:55.582Z,80
2018-09-07T07:37:55.308Z,85
2018-09-07T07:38:55.026Z,90
2018-09-07T07:39:54.755Z,95
2018-09-07T07:40:55.267Z,105
2018-09-07T07:41:54.992Z,115
2018-09-07T07:42:55.503Z,130
2018-09-07T07:43:54.966Z,140
2018-09-07T07:44:54.970Z,140
2018-09-07T07:45:55.461Z,140
2018-09-07T07:46:54.717Z,140
2018-09-07T07:47:56.067Z,145
2018-09-07T07:48:55.170Z,135
2018-09-07T07:49:54.880Z,135
2018-09-07T07:50:55.154Z,135
2018-09-07T07:51:54.873Z,140
2018-09-07T07:52:54.588Z,140
2018-09-07T07:53:55.103Z,130
2018-09-07T07:54:55.351Z,130
2018-09-07T07:55:54.552Z,135
2018-09-07T07:56:55.024Z,140
2018-09-07T07:57:55.060Z,155
2018-09-07T07:58:54.776Z,150
2018-09-07T07:59:54.772Z,150
2018-09-07T08:00:54.755Z,150
2018-09-07T08:01:54.523Z,140
2018-09-07T08:02:55.007Z,135
2018-09-07T08:03:54.721Z,130
2018-09-07T08:04:54.714Z,125
2018-09-07T08:05:55.139Z,130
2018-09-07T08:06:54.692Z,130
2018-09-07T08:07:54.420Z,130
2018-09-07T08:08:54.656Z,135
2018-09-07T08:09:54.653Z,145
2018-09-07T08:10:54.902Z,150
2018-09-07T08:11:54.881Z,140
2018-09-07T08:12:55.206Z,125
2018-09-07T08:13:54.876Z,125
2018-09-07T08:14:54.856Z,135
2018-09-07T08:15:54.594Z,140
2018-09-07T08:16:54.820Z,150
2018-09-07T08:17:54.823Z,155
2018-09-07T08:18:54.536Z,155
2018-09-07T08:19:54.271Z,155
2018-09-07T08:20:55.003Z,170
2018-09-07T08:21:54.248Z,190
2018-09-07T08:22:54.240Z,200
2018-09-07T08:23:55.013Z,215
2018-09-07T08:24:54.732Z,220
2018-09-07T08:25:54.456Z,230
2018-09-07T08:26:55.103Z,230
2018-09-07T08:27:55.101Z,235
2018-09-07T08:28:54.690Z,250
2018-09-07T08:29:54.416Z,260
2018-09-07T08:30:54.668Z,270
2018-09-07T08:31:54.394Z,260
2018-09-07T08:32:54.307Z,235
2018-09-07T08:33:54.115Z,215
2018-09-07T08:34:54.355Z,200
2018-09-07T08:35:54.343Z,190
2018-09-07T08:36:54.339Z,170
2018-09-07T08:37:54.586Z,165
2018-09-07T08:38:54.640Z,165
2018-09-07T08:39:54.835Z,135
2018-09-07T08:40:54.514Z,145
2018-09-07T08:41:54.012Z,125
2018-09-07T08:42:54.285Z,120
2018-09-07T08:43:54.786Z,125
2018-09-07T08:44:54.242Z,125
2018-09-07T08:45:54.498Z,135
2018-09-07T08:46:54.506Z,95
2018-09-07T08:47:54.207Z,85
2018-09-07T08:48:54.789Z,85
2018-09-07T08:49:53.923Z,85
2018-09-07T08:50:54.449Z,90
2018-09-07T08:51:53.896Z,85
2018-09-07T08:52:54.157Z,65
2018-09-07T08:53:54.146Z,80
2018-09-07T08:54:54.808Z,95
2018-09-07T08:55:54.120Z,85
2018-09-07T08:56:54.367Z,85
2018-09-07T08:57:54.371Z,65
2018-09-07T08:58:54.358Z,80
2018-09-07T08:59:54.336Z,80
2018-09-07T09:00:53.797Z,65
2018-09-07T09:01:54.314Z,85
2018-09-07T09:02:54.055Z,80
2018-09-07T09:03:54.559Z,75
2018-09-07T09:04:54.278Z,85
2018-09-07T09:05:54.008Z,85
2018-09-07T09:06:54.299Z,120
2018-09-07T09:07:54.507Z,95
2018-09-07T09:08:53.971Z,105
2018-09-07T09:09:54.236Z,85
2018-09-07T09:10:54.275Z,75
2018-09-07T09:11:54.204Z,65
2018-09-07T09:12:54.199Z,45
2018-09-07T09:13:53.646Z,45
2018-09-07T09:14:53.890Z,45
2018-09-07T09:15:54.292Z,45
2018-09-07T09:16:54.138Z,55
2018-09-07T09:17:54.385Z,55
2018-09-07T09:18:53.851Z,50
2018-09-07T09:19:53.570Z,55
2018-09-07T09:20:53.825Z,70
2018-09-07T09:21:53.815Z,55
2018-09-07T09:22:54.069Z,65
2018-09-07T09:23:54.382Z,70
2018-09-07T09:24:53.780Z,75
2018-09-07T09:25:53.763Z,50
2018-09-07T09:26:54.025Z,55
2018-09-07T09:27:53.741Z,50
2018-09-07T09:28:53.732Z,65
2018-09-07T09:29:53.979Z,70
2018-09-07T09:30:54.241Z,70
2018-09-07T09:31:54.224Z,90
2018-09-07T09:32:53.797Z,125
2018-09-07T09:33:53.671Z,125
2018-09-07T09:34:53.382Z,75
2018-09-07T09:35:53.654Z,85
2018-09-07T09:36:54.157Z,90
2018-09-07T09:37:53.616Z,90
2018-09-07T09:38:53.871Z,115
2018-09-07T09:39:53.595Z,105
2018-09-07T09:40:53.579Z,110
2018-09-07T09:41:54.102Z,145
2018-09-07T09:42:53.819Z,105
2018-09-07T09:43:53.018Z,130
2018-09-07T09:44:54.053Z,155
2018-09-07T09:45:53.519Z,145
2018-09-07T09:46:54.036Z,135
2018-09-07T09:47:52.967Z,110
2018-09-07T09:48:53.219Z,130
2018-09-07T09:49:53.204Z,95
2018-09-07T09:50:53.449Z,65
2018-09-07T09:51:53.450Z,75
2018-09-07T09:52:54.499Z,75
2018-09-07T09:53:53.676Z,70
2018-09-07T09:54:53.938Z,90
2018-09-07T09:55:53.656Z,90
2018-09-07T09:56:53.803Z,80
2018-09-07T09:57:52.834Z,55
2018-09-07T09:58:53.083Z,50
2018-09-07T09:59:53.642Z,60
2018-09-07T10:00:52.799Z,75
2018-09-07T10:01:53.576Z,70
2018-09-07T10:02:53.304Z,55
2018-09-07T10:03:52.775Z,55
2018-09-07T10:04:53.806Z,65
2018-09-07T10:05:53.982Z,85
2018-09-07T10:06:53.248Z,60
2018-09-07T10:07:53.825Z,40
2018-09-07T10:08:53.755Z,65
2018-09-07T10:09:53.743Z,80
2018-09-07T10:10:53.194Z,85
2018-09-07T10:11:53.190Z,85
2018-09-07T10:12:53.715Z,95
2018-09-07T10:13:53.167Z,160
2018-09-07T10:14:53.159Z,130
2018-09-07T10:15:52.867Z,140
2018-09-07T10:16:53.660Z,185
2018-09-07T10:17:53.630Z,160
2018-09-07T10:18:53.732Z,205
2018-09-07T10:19:53.081Z,205
2018-09-07T10:20:52.545Z,190
2018-09-07T10:21:53.054Z,250
2018-09-07T10:22:52.776Z,255
2018-09-07T10:23:53.183Z,235
2018-09-07T10:24:53.021Z,185
2018-09-07T10:25:52.747Z,185
2018-09-07T10:26:52.990Z,175
2018-09-07T10:27:53.448Z,185
2018-09-07T10:28:52.993Z,175
2018-09-07T10:29:53.488Z,180
2018-09-07T10:30:53.483Z,195
2018-09-07T10:31:53.934Z,205
2018-09-07T10:32:53.473Z,205
2018-09-07T10:33:53.179Z,215
2018-09-07T10:34:53.159Z,255
2018-09-07T10:35:53.157Z,270
2018-09-07T10:36:52.603Z,215
2018-09-07T10:37:53.326Z,215
2018-09-07T10:38:52.844Z,200
2018-09-07T10:39:53.103Z,200
2018-09-07T10:40:52.549Z,210
2018-09-07T10:41:53.357Z,195
2018-09-07T10:42:52.536Z,200
2018-09-07T10:43:52.785Z,195
2018-09-07T10:44:53.047Z,200
2018-09-07T10:45:52.489Z,195
2018-09-07T10:46:53.306Z,210
2018-09-07T10:47:52.469Z,225
2018-09-07T10:48:52.981Z,280
2018-09-07T10:49:52.556Z,315
2018-09-07T10:50:52.699Z,305
2018-09-07T10:51:52.693Z,310
2018-09-07T10:52:52.949Z,410
2018-09-07T10:53:52.934Z,380
2018-09-07T10:54:52.394Z,225
2018-09-07T10:55:52.923Z,185
2018-09-07T10:56:52.908Z,255
2018-09-07T10:57:52.618Z,280
2018-09-07T10:58:53.133Z,245
2018-09-07T10:59:52.879Z,285
2018-09-07T11:00:53.119Z,305
2018-09-07T11:01:52.572Z,315
2018-09-07T11:02:52.881Z,325
2018-09-07T11:03:52.572Z,430
2018-09-07T11:04:52.843Z,390
2018-09-07T11:05:52.537Z,390
2018-09-07T11:06:52.277Z,465
2018-09-07T11:07:52.794Z,430
2018-09-07T11:08:52.508Z,395
2018-09-07T11:09:52.764Z,340
2018-09-07T11:10:52.490Z,320
2018-09-07T11:11:53.002Z,355
2018-09-07T11:12:52.463Z,260
2018-09-07T11:13:52.836Z,275
2018-09-07T11:14:52.980Z,410
2018-09-07T11:15:52.706Z,350
2018-09-07T11:16:52.691Z,655
2018-09-07T11:17:52.956Z,625
2018-09-07T11:18:52.677Z,575
2018-09-07T11:19:52.399Z,700
2018-09-07T11:20:52.851Z,1465
2018-09-07T11:21:52.661Z,1455
2018-09-07T11:22:52.645Z,1505
2018-09-07T11:23:52.125Z,1370
2018-09-07T11:24:52.913Z,1350
2018-09-07T11:25:52.100Z,1430
2018-09-07T11:26:52.363Z,470
2018-09-07T11:27:52.616Z,270
2018-09-07T11:28:52.618Z,210
2018-09-07T11:29:52.343Z,235
2018-09-07T11:30:52.066Z,305
2018-09-07T11:31:52.333Z,675
2018-09-07T11:32:52.590Z,335
2018-09-07T11:33:52.364Z,195
2018-09-07T11:34:52.303Z,160
2018-09-07T11:35:52.842Z,175
2018-09-07T11:36:52.832Z,190
2018-09-07T11:37:52.562Z,170
2018-09-07T11:38:52.542Z,180
2018-09-07T11:39:52.279Z,180
2018-09-07T11:40:52.531Z,235
2018-09-07T11:41:52.789Z,1580
2018-09-07T11:42:52.564Z,1200
2018-09-07T11:43:52.512Z,405
2018-09-07T11:44:52.506Z,305
2018-09-07T11:45:52.516Z,245
2018-09-07T11:46:51.971Z,310
2018-09-07T11:47:52.220Z,485
2018-09-07T11:48:52.487Z,700
2018-09-07T11:49:52.217Z,940
2018-09-07T11:50:52.492Z,460
2018-09-07T11:51:52.478Z,640
2018-09-07T11:52:52.194Z,235
2018-09-07T11:53:52.186Z,210
2018-09-07T11:54:52.404Z,185
2018-09-07T11:55:51.911Z,175
2018-09-07T11:56:52.698Z,165
2018-09-07T11:57:52.740Z,165
2018-09-07T11:58:52.700Z,195
2018-09-07T11:59:51.895Z,215
2018-09-07T12:00:52.152Z,245
2018-09-07T12:01:51.869Z,610
2018-09-07T12:02:52.128Z,430
2018-09-07T12:03:51.855Z,1480
2018-09-07T12:04:52.488Z,470
2018-09-07T12:05:52.107Z,1295
2018-09-07T12:06:52.359Z,1575
2018-09-07T12:07:52.099Z,280
2018-09-07T12:08:51.825Z,510
2018-09-07T12:09:52.360Z,360
2018-09-07T12:10:52.551Z,310
2018-09-07T12:11:52.072Z,280
2018-09-07T12:12:53.061Z,320
2018-09-07T12:13:52.317Z,800
2018-09-07T12:14:52.578Z,1565
2018-09-07T12:15:52.565Z,1595
2018-09-07T12:16:52.101Z,1610
2018-09-07T12:17:52.292Z,1605
2018-09-07T12:18:52.291Z,1555
2018-09-07T12:19:52.016Z,1495
2018-09-07T12:20:52.009Z,1245
2018-09-07T12:21:52.549Z,1500
2018-09-07T12:22:52.262Z,1515
2018-09-07T12:23:52.782Z,1555
2018-09-07T12:24:51.991Z,1600
2018-09-07T12:25:52.244Z,1635
2018-09-07T12:26:52.254Z,1595
2018-09-07T12:27:52.291Z,290
2018-09-07T12:28:52.449Z,1630
2018-09-07T12:29:52.508Z,320
2018-09-07T12:30:52.512Z,240
2018-09-07T12:31:52.507Z,1310
2018-09-07T12:32:52.244Z,1635
2018-09-07T12:33:52.236Z,1580
2018-09-07T12:34:52.178Z,1580
2018-09-07T12:35:52.234Z,1605
2018-09-07T12:36:51.971Z,495
2018-09-07T12:37:52.225Z,370
2018-09-07T12:38:51.706Z,1220
2018-09-07T12:39:52.228Z,305
2018-09-07T12:40:52.227Z,555
2018-09-07T12:41:52.758Z,1555
2018-09-07T12:42:52.224Z,815
2018-09-07T12:43:51.704Z,1635
2018-09-07T12:44:51.958Z,1640
2018-09-07T12:45:52.221Z,1640
2018-09-07T12:46:52.220Z,1645
2018-09-07T12:47:51.958Z,1655
2018-09-07T12:48:52.217Z,1625
2018-09-07T12:49:52.482Z,1600
2018-09-07T12:50:52.489Z,1570
2018-09-07T12:51:52.220Z,1560
2018-09-07T12:52:51.948Z,1535
2018-09-07T12:53:52.260Z,1520
2018-09-07T12:54:51.951Z,1555
2018-09-07T12:55:52.484Z,1610
2018-09-07T12:56:52.479Z,1605
2018-09-07T12:57:52.239Z,1515
2018-09-07T12:58:51.684Z,1575
2018-09-07T12:59:52.488Z,1635
2018-09-07T13:00:51.965Z,1585
2018-09-07T13:01:52.228Z,1565
2018-09-07T13:02:51.982Z,675
2018-09-07T13:03:51.963Z,1035
2018-09-07T13:04:52.230Z,765
2018-09-07T13:05:52.248Z,1675
2018-09-07T13:06:51.979Z,1620
2018-09-07T13:07:52.022Z,1625
2018-09-07T13:08:51.975Z,1535
2018-09-07T13:09:52.022Z,1530
2018-09-07T13:10:52.282Z,1530
2018-09-07T13:11:51.750Z,1460
2018-09-07T13:12:51.717Z,1410
2018-09-07T13:13:52.254Z,1480
2018-09-07T13:14:52.241Z,1465
2018-09-07T13:15:52.294Z,1515
2018-09-07T13:16:51.714Z,1490
2018-09-07T13:17:51.986Z,1475
2018-09-07T13:18:52.511Z,1430
2018-09-07T13:19:52.506Z,1450
2018-09-07T13:20:52.514Z,1335
2018-09-07T13:21:52.541Z,1430
2018-09-07T13:22:52.524Z,1525
2018-09-07T13:23:52.045Z,1450
2018-09-07T13:24:52.248Z,1365
2018-09-07T13:25:52.262Z,1285
2018-09-07T13:26:52.264Z,1235
2018-09-07T13:27:52.007Z,1245
2018-09-07T13:28:52.923Z,1260
2018-09-07T13:29:52.006Z,1445
2018-09-07T13:30:52.553Z,1475
2018-09-07T13:31:51.742Z,1370
2018-09-07T13:32:52.547Z,1260
2018-09-07T13:33:52.283Z,1275
2018-09-07T13:34:52.555Z,1275
2018-09-07T13:35:52.502Z,405
2018-09-07T13:36:52.559Z,1135
2018-09-07T13:37:52.558Z,1275
2018-09-07T13:38:52.297Z,1220
2018-09-07T13:39:52.087Z,1195
2018-09-07T13:40:52.041Z,1195
2018-09-07T13:41:52.036Z,1180
2018-09-07T13:42:51.780Z,1210
2018-09-07T13:43:52.044Z,1225
2018-09-07T13:44:52.312Z,1215
2018-09-07T13:45:52.319Z,1265
2018-09-07T13:46:52.055Z,1395
2018-09-07T13:47:52.336Z,1420
2018-09-07T13:48:52.049Z,1015
2018-09-07T13:49:52.318Z,890
2018-09-07T13:50:51.789Z,570
2018-09-07T13:51:52.595Z,1495
2018-09-07T13:52:52.326Z,1450
2018-09-07T13:53:52.330Z,1465
2018-09-07T13:54:52.290Z,1490
2018-09-07T13:55:52.057Z,1475
2018-09-07T13:56:52.336Z,1340
2018-09-07T13:57:52.327Z,1340
2018-09-07T13:58:52.334Z,1375
2018-09-07T13:59:52.073Z,1430
2018-09-07T14:00:52.081Z,1440
2018-09-07T14:01:52.019Z,1415
2018-09-07T14:02:52.345Z,1385
2018-09-07T14:03:52.597Z,1355
2018-09-07T14:04:52.339Z,1365
2018-09-07T14:05:52.338Z,1430
2018-09-07T14:06:52.340Z,1415
2018-09-07T14:07:52.345Z,1335
2018-09-07T14:08:52.088Z,1275
2018-09-07T14:09:52.619Z,250